Time;durP1;ratioP1;P1;durP2;ratioP2;P2;SDS_P1;SDS_P2;PMS_P1;PMS_P2;Temp;Humidity;BMP_temperature;BMP_pressure;BME280_temperature;BME280_humidity;BME280_pressure;Samples;Min_cycle;Max_cycle;Signal;HPM_P1;HPM_P2
2024/03/26 00:00:32;;;;;;;3.93;3.20;;;7.00;97.90;;;;;;4914096;29;20449;-88
2024/03/26 00:02:58;;;;;;;5.90;3.20;;;6.50;97.40;;;;;;4932572;29;20209;-87
2024/03/26 00:05:23;;;;;;;3.87;3.00;;;6.30;97.70;;;;;;4916950;29;20596;-86
2024/03/26 00:07:49;;;;;;;3.97;2.90;;;6.30;97.60;;;;;;4931424;29;20202;-89
2024/03/26 00:10:14;;;;;;;3.70;2.80;;;6.50;98.10;;;;;;4916333;29;20185;-87
2024/03/26 00:12:40;;;;;;;2.60;2.37;;;6.40;98.10;;;;;;4930432;29;20686;-89
2024/03/26 00:15:06;;;;;;;6.80;4.23;;;6.30;97.90;;;;;;4930651;29;20276;-87
2024/03/26 00:17:32;;;;;;;2.97;2.65;;;6.20;98.60;;;;;;4916398;29;20748;-87
2024/03/26 00:19:58;;;;;;;3.53;2.65;;;5.60;98.60;;;;;;4932122;29;20194;-87
2024/03/26 00:22:23;;;;;;;2.77;2.57;;;6.00;98.70;;;;;;4916991;29;20362;-88
2024/03/26 00:24:49;;;;;;;3.00;2.70;;;6.10;98.90;;;;;;4929280;29;20293;-88
2024/03/26 00:27:14;;;;;;;3.30;3.00;;;6.30;99.10;;;;;;4917078;29;20214;-89
2024/03/26 00:29:40;;;;;;;3.77;3.03;;;6.00;99.10;;;;;;4912746;29;20228;-87
2024/03/26 00:32:05;;;;;;;2.80;2.60;;;6.50;99.30;;;;;;4933283;29;20200;-89
2024/03/26 00:34:31;;;;;;;3.47;2.80;;;6.20;99.30;;;;;;4917519;29;20594;-87
2024/03/26 00:36:56;;;;;;;4.23;2.93;;;6.70;99.90;;;;;;4922935;29;20227;-86
2024/03/26 00:39:22;;;;;;;4.50;3.30;;;6.30;99.60;;;;;;4914445;29;20595;-89
2024/03/26 00:41:48;;;;;;;5.87;2.80;;;6.10;99.50;;;;;;4932596;29;20209;-89
2024/03/26 00:44:14;;;;;;;3.58;2.90;;;6.20;99.80;;;;;;4914501;29;20868;-89
2024/03/26 00:46:39;;;;;;;3.30;3.00;;;5.50;99.90;;;;;;4916701;29;20248;-89
2024/03/26 00:49:05;;;;;;;6.93;2.80;;;6.50;99.90;;;;;;4915642;29;20212;-89
2024/03/26 00:51:30;;;;;;;2.73;2.50;;;5.90;99.90;;;;;;4911584;29;20272;-89
2024/03/26 00:53:56;;;;;;;5.40;3.23;;;5.70;99.90;;;;;;4912893;29;20222;-89
2024/03/26 00:56:21;;;;;;;3.00;2.73;;;6.20;99.90;;;;;;4932057;29;20240;-89
2024/03/26 00:58:47;;;;;;;3.43;2.63;;;6.10;99.90;;;;;;4915287;29;20884;-89
2024/03/26 01:01:12;;;;;;;5.57;2.80;;;6.00;99.90;;;;;;4931253;29;20205;-89
2024/03/26 01:03:38;;;;;;;3.73;2.87;;;5.90;99.90;;;;;;4915423;29;20203;-89
2024/03/26 01:06:04;;;;;;;3.70;2.47;;;6.10;99.90;;;;;;4918621;29;20217;-89
2024/03/26 01:08:30;;;;;;;5.00;3.40;;;5.80;99.90;;;;;;4931224;29;20544;-88
2024/03/26 01:10:55;;;;;;;3.57;2.87;;;6.10;99.90;;;;;;4911577;29;20201;-89
2024/03/26 01:13:21;;;;;;;3.87;2.93;;;6.10;99.90;;;;;;4928710;29;20467;-89
2024/03/26 01:15:47;;;;;;;2.75;2.55;;;6.20;99.90;;;;;;4928238;29;20213;-89
2024/03/26 01:18:12;;;;;;;2.90;2.60;;;5.90;99.90;;;;;;4915339;29;20198;-89
2024/03/26 01:20:38;;;;;;;3.20;2.60;;;6.30;99.90;;;;;;4910326;29;20248;-88
2024/03/26 01:23:04;;;;;;;6.20;2.77;;;5.70;99.90;;;;;;4916061;29;20237;-89
2024/03/26 01:25:30;;;;;;;3.75;2.90;;;5.60;99.90;;;;;;4913036;29;20457;-89
2024/03/26 01:27:57;;;;;;;4.05;3.25;;;6.00;99.90;;;;;;4912815;29;20189;-86
2024/03/26 01:30:23;;;;;;;3.03;2.60;;;5.70;99.90;;;;;;4930258;29;20655;-88
2024/03/26 01:32:49;;;;;;;3.92;2.85;;;6.20;99.90;;;;;;4915071;29;20198;-88
2024/03/26 01:35:14;;;;;;;2.73;2.53;;;6.00;99.90;;;;;;4914521;29;20190;-89
2024/03/26 01:37:40;;;;;;;2.70;2.33;;;5.70;99.90;;;;;;4928658;29;20201;-88
2024/03/26 01:40:08;;;;;;;2.80;2.60;;;5.50;99.90;;;;;;4913175;29;20217;-89
2024/03/26 01:42:34;;;;;;;2.63;2.42;;;5.60;99.90;;;;;;4932203;29;20653;-89
2024/03/26 01:45:00;;;;;;;2.80;2.60;;;5.60;99.90;;;;;;4911638;29;20245;-88
2024/03/26 01:47:26;;;;;;;2.60;2.27;;;5.60;99.90;;;;;;4928228;29;20607;-88
2024/03/26 01:49:54;;;;;;;4.67;3.00;;;5.60;99.90;;;;;;4913172;29;20445;-88
2024/03/26 01:52:21;;;;;;;7.13;3.20;;;5.50;99.90;;;;;;4926354;29;20529;-88
2024/03/26 01:54:49;;;;;;;4.38;2.67;;;5.70;99.90;;;;;;4914157;29;20935;-88
2024/03/26 01:57:15;;;;;;;2.90;2.60;;;5.40;99.90;;;;;;4927912;29;20219;-88
2024/03/26 01:59:42;;;;;;;4.20;2.80;;;5.30;99.90;;;;;;4912107;29;20685;-88
2024/03/26 02:02:07;;;;;;;5.80;3.10;;;5.60;99.90;;;;;;4914722;29;20217;-88
2024/03/26 02:04:33;;;;;;;4.00;3.27;;;5.10;99.90;;;;;;4910605;29;20182;-86
2024/03/26 02:06:58;;;;;;;3.17;2.87;;;5.20;99.90;;;;;;4915955;29;20703;-86
2024/03/26 02:09:24;;;;;;;4.03;2.80;;;5.50;99.90;;;;;;4928573;29;20188;-86
2024/03/26 02:11:49;;;;;;;5.00;2.73;;;5.00;99.90;;;;;;4913968;29;20225;-86
2024/03/26 02:14:16;;;;;;;4.67;3.00;;;5.10;99.90;;;;;;4916822;29;20193;-87
2024/03/26 02:16:42;;;;;;;2.70;2.50;;;5.20;99.90;;;;;;4929930;29;20213;-87
2024/03/26 02:19:08;;;;;;;2.37;2.17;;;5.10;99.90;;;;;;4913667;29;20186;-87
2024/03/26 02:21:34;;;;;;;3.70;2.80;;;4.90;99.90;;;;;;4914832;29;20212;-88
2024/03/26 02:23:59;;;;;;;3.10;2.80;;;5.50;99.90;;;;;;4923189;29;20188;-88
2024/03/26 02:26:25;;;;;;;3.23;2.93;;;5.00;99.90;;;;;;4956548;28;20198;-87
2024/03/26 02:28:54;;;;;;;4.00;2.50;;;4.90;99.90;;;;;;4946883;28;20680;-87
2024/03/26 02:31:20;;;;;;;2.95;2.63;;;5.30;99.90;;;;;;4933939;29;20188;-90
2024/03/26 02:33:45;;;;;;;3.20;2.70;;;5.30;99.90;;;;;;4928234;29;20763;-88
2024/03/26 02:36:11;;;;;;;6.53;2.80;;;5.50;99.90;;;;;;4917752;29;20610;-88
2024/03/26 02:38:36;;;;;;;2.90;2.60;;;5.30;99.90;;;;;;4917886;29;20203;-88
2024/03/26 02:41:02;;;;;;;2.90;2.70;;;4.90;99.90;;;;;;4937099;29;20268;-88
2024/03/26 02:43:28;;;;;;;3.80;2.70;;;5.00;99.90;;;;;;4936236;29;20205;-88
2024/03/26 02:45:54;;;;;;;3.10;2.80;;;5.30;99.90;;;;;;4950058;28;20197;-88
2024/03/26 02:48:19;;;;;;;3.40;3.07;;;5.00;99.90;;;;;;4958745;28;20721;-88
2024/03/26 02:50:50;;;;;;;3.63;2.40;;;4.90;99.90;;;;;;4931850;29;20659;-88
2024/03/26 02:53:15;;;;;;;3.33;3.00;;;5.30;99.90;;;;;;4921356;29;20189;-88
2024/03/26 02:55:41;;;;;;;6.40;2.83;;;4.90;99.90;;;;;;4934346;29;20199;-88
2024/03/26 02:58:06;;;;;;;3.40;2.87;;;4.80;99.90;;;;;;4934946;29;20678;-88
2024/03/26 03:00:32;;;;;;;3.63;3.00;;;4.90;99.90;;;;;;4913329;29;20194;-88
2024/03/26 03:02:58;;;;;;;3.95;3.00;;;5.10;99.90;;;;;;4934905;29;20227;-88
2024/03/26 03:05:23;;;;;;;3.20;3.00;;;5.20;99.90;;;;;;4916445;29;20315;-88
2024/03/26 03:07:49;;;;;;;4.40;2.90;;;5.30;99.90;;;;;;4932865;29;20208;-88
2024/03/26 03:10:14;;;;;;;4.23;3.07;;;4.90;99.90;;;;;;4917078;29;20201;-88
2024/03/26 03:12:40;;;;;;;3.13;2.50;;;5.30;99.90;;;;;;4916538;29;20224;-88
2024/03/26 03:15:05;;;;;;;3.10;2.50;;;5.40;99.90;;;;;;4913646;29;20292;-88
2024/03/26 03:17:31;;;;;;;3.47;2.93;;;4.90;99.90;;;;;;4917347;29;20784;-88
2024/03/26 03:19:56;;;;;;;3.30;3.00;;;5.40;99.90;;;;;;4917548;29;20201;-88
2024/03/26 03:22:22;;;;;;;4.10;2.57;;;4.80;99.90;;;;;;4936705;29;20223;-88
2024/03/26 03:24:47;;;;;;;3.10;2.77;;;5.00;99.90;;;;;;4914221;29;20252;-88
2024/03/26 03:27:13;;;;;;;8.97;3.07;;;4.70;99.90;;;;;;4926216;29;21243;-87
2024/03/26 03:29:38;;;;;;;3.53;2.90;;;4.80;99.90;;;;;;4940198;29;20191;-88
2024/03/26 03:32:04;;;;;;;3.50;2.77;;;4.70;99.90;;;;;;4932942;29;20208;-88
2024/03/26 03:34:30;;;;;;;3.43;2.73;;;4.80;99.90;;;;;;4935156;29;20782;-88
2024/03/26 03:36:55;;;;;;;3.63;3.30;;;4.80;99.90;;;;;;4916680;29;20597;-88
2024/03/26 03:39:21;;;;;;;3.90;3.10;;;4.90;99.90;;;;;;4931646;29;20558;-88
2024/03/26 03:41:46;;;;;;;5.13;3.00;;;4.80;99.90;;;;;;4916787;29;20292;-88
2024/03/26 03:44:12;;;;;;;3.90;3.20;;;5.30;99.90;;;;;;4916888;29;20267;-87
2024/03/26 03:46:37;;;;;;;3.53;2.83;;;5.10;99.90;;;;;;4915878;29;20212;-87
2024/03/26 03:49:03;;;;;;;3.47;2.80;;;4.90;99.90;;;;;;4914957;29;20242;-86
2024/03/26 03:51:29;;;;;;;3.50;3.20;;;5.10;99.90;;;;;;4916160;29;20729;-86
2024/03/26 03:53:54;;;;;;;4.53;3.47;;;4.90;99.90;;;;;;4931915;29;20197;-88
2024/03/26 03:56:20;;;;;;;3.60;3.00;;;4.80;99.90;;;;;;4930955;29;20576;-87
2024/03/26 03:58:45;;;;;;;2.80;2.60;;;5.30;99.90;;;;;;4932147;29;20184;-88
2024/03/26 04:01:11;;;;;;;4.37;3.63;;;5.00;99.90;;;;;;4913714;29;20206;-88
2024/03/26 04:03:37;;;;;;;3.70;3.30;;;4.80;99.90;;;;;;4928908;29;20681;-87
2024/03/26 04:06:03;;;;;;;3.17;2.80;;;4.90;99.90;;;;;;4932640;29;20785;-87
2024/03/26 04:08:28;;;;;;;5.07;2.90;;;4.90;99.90;;;;;;4929520;29;20456;-87
2024/03/26 04:10:54;;;;;;;3.03;2.73;;;4.90;99.90;;;;;;4932297;29;20194;-86
2024/03/26 04:13:20;;;;;;;4.43;3.27;;;5.20;99.90;;;;;;4930667;29;20244;-87
2024/03/26 04:15:45;;;;;;;4.77;3.50;;;5.20;99.90;;;;;;4914440;29;20262;-88
2024/03/26 04:18:11;;;;;;;6.50;3.43;;;4.90;99.90;;;;;;4915523;29;20199;-87
2024/03/26 04:20:36;;;;;;;5.23;3.67;;;4.80;99.90;;;;;;4914937;29;20611;-88
2024/03/26 04:23:01;;;;;;;4.70;3.40;;;4.80;99.90;;;;;;4932236;29;20212;-87
2024/03/26 04:25:27;;;;;;;4.73;3.40;;;4.90;99.90;;;;;;4928105;29;20197;-87
2024/03/26 04:27:53;;;;;;;4.10;3.70;;;4.90;99.90;;;;;;4932467;29;20626;-88
2024/03/26 04:30:18;;;;;;;6.00;3.40;;;5.10;99.90;;;;;;4924999;29;20606;-87
2024/03/26 04:32:44;;;;;;;5.80;3.50;;;5.10;99.90;;;;;;4917521;29;20208;-86
2024/03/26 04:35:13;;;;;;;4.40;3.00;;;5.00;99.90;;;;;;4918117;29;21150;-86
2024/03/26 04:37:38;;;;;;;3.60;2.90;;;5.00;99.90;;;;;;4927558;29;20228;-87
2024/03/26 04:40:05;;;;;;;3.30;3.00;;;5.20;99.90;;;;;;4925938;29;20224;-87
2024/03/26 04:42:31;;;;;;;5.07;3.50;;;5.10;99.90;;;;;;4922559;29;20224;-87
2024/03/26 04:44:57;;;;;;;4.45;4.05;;;5.10;99.90;;;;;;4924040;29;20203;-88
2024/03/26 04:47:23;;;;;;;9.83;8.83;;;5.20;99.90;;;;;;4933346;29;20629;-88
2024/03/26 04:49:48;;;;;;;7.57;6.37;;;5.60;99.90;;;;;;4916857;29;20194;-87
2024/03/26 04:52:14;;;;;;;6.80;6.20;;;5.10;99.90;;;;;;4939940;29;20251;-87
2024/03/26 04:54:40;;;;;;;5.27;4.77;;;5.70;99.90;;;;;;4929310;29;20189;-87
2024/03/26 04:57:05;;;;;;;4.93;4.10;;;5.20;99.90;;;;;;4920398;29;20217;-87
2024/03/26 04:59:31;;;;;;;6.27;4.33;;;5.60;99.90;;;;;;4926815;29;20190;-86
2024/03/26 05:01:56;;;;;;;4.60;3.43;;;5.20;99.90;;;;;;4924730;29;20274;-86
2024/03/26 05:04:22;;;;;;;6.83;4.13;;;5.60;99.90;;;;;;4930518;29;20213;-86
2024/03/26 05:06:47;;;;;;;4.50;3.50;;;5.60;99.90;;;;;;4947316;28;20232;-86
2024/03/26 05:09:12;;;;;;;4.87;3.50;;;5.20;99.90;;;;;;4955069;28;20266;-86
2024/03/26 05:11:38;;;;;;;4.23;3.50;;;5.40;99.90;;;;;;4943392;29;20209;-86
2024/03/26 05:14:04;;;;;;;4.13;3.73;;;5.50;99.90;;;;;;4940723;29;20238;-86
2024/03/26 05:16:30;;;;;;;5.18;3.45;;;5.70;99.90;;;;;;4938359;29;20211;-86
2024/03/26 05:18:56;;;;;;;4.83;3.90;;;5.30;99.90;;;;;;4917722;29;22135;-86
2024/03/26 05:21:21;;;;;;;9.83;3.40;;;5.40;99.90;;;;;;4922861;29;20671;-86
2024/03/26 05:23:47;;;;;;;5.13;3.97;;;5.60;99.90;;;;;;4923945;29;20457;-87
2024/03/26 05:26:12;;;;;;;3.43;3.13;;;5.60;99.90;;;;;;4914182;29;20777;-88
2024/03/26 05:28:38;;;;;;;7.67;3.60;;;5.60;99.90;;;;;;4916783;29;20190;-88
2024/03/26 05:31:20;;;;;;;3.80;3.20;;;5.50;99.90;;;;;;4915591;29;20186;-88
2024/03/26 05:33:47;;;;;;;5.57;3.95;;;5.70;99.90;;;;;;4918546;29;20197;-88
2024/03/26 05:36:13;;;;;;;3.67;3.38;;;6.00;99.90;;;;;;4921825;29;20205;-88
2024/03/26 05:38:40;;;;;;;4.50;3.95;;;6.00;99.90;;;;;;4938163;28;20181;-88
2024/03/26 05:41:05;;;;;;;4.15;3.13;;;5.80;99.90;;;;;;4921115;29;20201;-88
2024/03/26 05:43:31;;;;;;;3.97;3.50;;;6.00;99.90;;;;;;4926052;29;20339;-88
2024/03/26 05:45:57;;;;;;;4.30;3.90;;;5.90;99.90;;;;;;4904075;29;20304;-88
2024/03/26 05:48:22;;;;;;;5.03;4.07;;;6.10;99.90;;;;;;4920061;29;20220;-88
2024/03/26 05:50:48;;;;;;;6.67;4.37;;;6.40;99.90;;;;;;4919755;29;20193;-88
2024/03/26 05:53:13;;;;;;;4.43;3.93;;;6.20;99.90;;;;;;4921381;29;21760;-88
2024/03/26 05:55:39;;;;;;;4.53;4.03;;;5.90;99.90;;;;;;4914446;28;20194;-88
2024/03/26 05:58:05;;;;;;;5.17;3.57;;;6.20;99.90;;;;;;4919967;29;20593;-88
2024/03/26 06:00:32;;;;;;;5.10;3.43;;;6.30;99.90;;;;;;4923427;29;20217;-88
2024/03/26 06:02:57;;;;;;;4.88;3.45;;;5.60;99.90;;;;;;4928625;29;20217;-88
2024/03/26 06:05:23;;;;;;;4.50;3.47;;;6.30;99.90;;;;;;4915268;29;20233;-88
2024/03/26 06:07:48;;;;;;;4.20;3.80;;;5.90;99.90;;;;;;4936812;28;20674;-88
2024/03/26 06:10:14;;;;;;;4.70;3.60;;;6.20;99.90;;;;;;4925509;29;20290;-88
2024/03/26 06:12:41;;;;;;;4.07;3.67;;;6.30;99.90;;;;;;4917593;29;20209;-82
2024/03/26 06:15:08;;;;;;;4.10;3.70;;;6.80;99.90;;;;;;4918825;29;20453;-82
2024/03/26 06:17:33;;;;;;;4.10;3.50;;;6.60;99.90;;;;;;4921931;29;20201;-81
2024/03/26 06:19:59;;;;;;;7.00;4.30;;;6.60;99.90;;;;;;4940862;29;20220;-82
2024/03/26 06:22:24;;;;;;;5.40;4.10;;;6.70;99.90;;;;;;4918989;29;20273;-81
2024/03/26 06:24:50;;;;;;;5.33;3.97;;;7.00;99.90;;;;;;4933492;29;20229;-88
2024/03/26 06:27:15;;;;;;;4.70;3.90;;;7.10;99.90;;;;;;4918127;29;20353;-89
2024/03/26 06:29:41;;;;;;;4.97;3.63;;;7.60;99.90;;;;;;4929910;29;20671;-90
2024/03/26 06:32:06;;;;;;;5.50;3.87;;;7.10;99.90;;;;;;4930957;29;20202;-90
2024/03/26 06:34:32;;;;;;;4.67;4.27;;;7.70;99.90;;;;;;4924405;29;20269;-90
2024/03/26 06:37:03;;;;;;;4.17;3.77;;;7.30;99.90;;;;;;4922074;29;20214;-90
2024/03/26 06:39:30;;;;;;;7.07;4.35;;;7.30;99.90;;;;;;4919262;29;20221;-90
2024/03/26 06:41:56;;;;;;;5.10;4.15;;;7.20;99.90;;;;;;4915469;29;20213;-89
2024/03/26 06:44:21;;;;;;;6.45;4.80;;;7.20;99.90;;;;;;4904852;29;20190;-89
2024/03/26 06:46:48;;;;;;;6.10;4.90;;;7.30;99.90;;;;;;4938253;29;20211;-91
2024/03/26 06:49:15;;;;;;;7.07;4.18;;;7.70;99.90;;;;;;4934197;29;20196;-90
2024/03/26 06:51:40;;;;;;;7.15;4.50;;;7.50;99.90;;;;;;4925258;29;20190;-90
2024/03/26 06:54:06;;;;;;;6.17;3.80;;;7.30;99.90;;;;;;4932439;29;20766;-87
2024/03/26 06:56:33;;;;;;;5.93;4.73;;;7.80;99.90;;;;;;4920008;29;20564;-88
2024/03/26 06:58:58;;;;;;;5.15;4.25;;;7.40;99.90;;;;;;4915878;29;20289;-88
2024/03/26 07:01:24;;;;;;;6.20;4.47;;;7.80;99.80;;;;;;4920290;29;20273;-89
2024/03/26 07:03:51;;;;;;;8.50;4.90;;;8.20;99.60;;;;;;4928622;29;20193;-89
2024/03/26 07:06:16;;;;;;;5.35;4.85;;;7.70;98.90;;;;;;4922706;29;20657;-89
2024/03/26 07:08:43;;;;;;;4.93;3.50;;;7.90;98.90;;;;;;4917038;29;20336;-90
2024/03/26 07:11:09;;;;;;;4.30;3.92;;;8.10;98.80;;;;;;4931148;29;20223;-90
2024/03/26 07:13:35;;;;;;;3.83;3.43;;;8.50;98.50;;;;;;4931539;29;20194;-89
2024/03/26 07:16:01;;;;;;;4.90;4.00;;;8.50;98.00;;;;;;4914023;29;21138;-90
2024/03/26 07:18:26;;;;;;;5.90;4.27;;;8.30;99.90;;;;;;4936037;29;20225;-88
2024/03/26 07:20:52;;;;;;;7.47;4.90;;;8.40;99.40;;;;;;4924102;29;20284;-89
2024/03/26 07:23:17;;;;;;;4.47;3.80;;;8.20;99.90;;;;;;4924501;29;20241;-90
2024/03/26 07:25:43;;;;;;;6.60;4.00;;;8.60;98.80;;;;;;4920459;29;20212;-90
2024/03/26 07:28:08;;;;;;;6.73;4.13;;;8.70;99.90;;;;;;4935684;29;20599;-89
2024/03/26 07:30:35;;;;;;;4.77;4.03;;;8.80;97.50;;;;;;4934952;29;20612;-89
2024/03/26 07:33:02;;;;;;;4.10;3.75;;;9.10;98.40;;;;;;4919846;29;20199;-89
2024/03/26 07:35:28;;;;;;;4.65;3.60;;;9.00;97.90;;;;;;4920335;29;21023;-89
2024/03/26 07:37:53;;;;;;;7.00;3.67;;;9.40;96.80;;;;;;4921462;29;20329;-88
2024/03/26 07:40:18;;;;;;;4.17;3.53;;;9.60;95.30;;;;;;4924035;29;20187;-88
2024/03/26 07:42:45;;;;;;;3.73;3.40;;;9.40;97.20;;;;;;4920726;29;20230;-88
2024/03/26 07:45:11;;;;;;;6.60;4.00;;;9.60;96.30;;;;;;4935471;29;20196;-88
2024/03/26 07:47:37;;;;;;;3.90;3.22;;;9.40;95.00;;;;;;4935694;28;20235;-90
2024/03/26 07:50:03;;;;;;;3.90;3.50;;;9.70;94.20;;;;;;4954207;28;20188;-88
2024/03/26 07:52:29;;;;;;;4.90;3.20;;;9.90;93.50;;;;;;4949141;28;20192;-88
2024/03/26 07:54:55;;;;;;;4.27;3.60;;;10.10;92.30;;;;;;4939871;29;20201;-89
2024/03/26 07:57:21;;;;;;;5.33;4.03;;;9.80;92.60;;;;;;4919913;29;20477;-88
2024/03/26 07:59:46;;;;;;;6.87;4.13;;;10.50;92.20;;;;;;4922002;29;20188;-89
2024/03/26 08:02:12;;;;;;;3.47;3.17;;;11.20;91.50;;;;;;4934600;29;20292;-90
2024/03/26 08:04:38;;;;;;;4.83;3.57;;;11.70;88.90;;;;;;4917962;29;20252;-90
2024/03/26 08:07:06;;;;;;;4.80;3.70;;;11.70;87.20;;;;;;4918382;29;20256;-87
2024/03/26 08:09:32;;;;;;;5.07;3.33;;;11.60;87.10;;;;;;4937750;29;20193;-89
2024/03/26 08:11:58;;;;;;;4.90;3.50;;;11.60;86.70;;;;;;4936174;29;20280;-88
2024/03/26 08:14:24;;;;;;;4.03;3.30;;;11.40;87.00;;;;;;4920923;29;20200;-88
2024/03/26 08:16:51;;;;;;;4.00;3.50;;;11.40;87.20;;;;;;4918348;29;20214;-88
2024/03/26 08:19:17;;;;;;;4.30;3.30;;;11.20;87.60;;;;;;4916133;29;20187;-88
2024/03/26 08:21:42;;;;;;;6.77;3.70;;;11.40;87.90;;;;;;4925816;29;20772;-88
2024/03/26 08:24:08;;;;;;;7.73;4.00;;;11.60;88.40;;;;;;4921700;29;20204;-88
2024/03/26 08:26:33;;;;;;;3.80;3.47;;;11.80;87.80;;;;;;4936164;28;20288;-89
2024/03/26 08:28:59;;;;;;;4.10;3.70;;;11.70;87.50;;;;;;4917141;29;21417;-88
2024/03/26 08:31:25;;;;;;;7.43;6.73;;;12.00;88.20;;;;;;4916923;29;20222;-87
2024/03/26 08:33:51;;;;;;;4.57;4.03;;;11.60;88.50;;;;;;4935382;29;20240;-88
2024/03/26 08:36:16;;;;;;;5.53;3.77;;;12.30;88.40;;;;;;4918977;29;20216;-87
2024/03/26 08:38:42;;;;;;;3.87;3.50;;;11.80;87.40;;;;;;4934584;29;20230;-88
2024/03/26 08:41:07;;;;;;;5.30;3.50;;;11.90;87.20;;;;;;4920125;29;20197;-88
2024/03/26 08:43:33;;;;;;;4.27;3.40;;;12.10;88.40;;;;;;4921544;29;20671;-87
2024/03/26 08:45:59;;;;;;;4.80;3.27;;;11.60;88.20;;;;;;4939103;29;20277;-88
2024/03/26 08:48:24;;;;;;;5.10;3.63;;;12.20;87.10;;;;;;4939812;29;20448;-86
2024/03/26 08:50:51;;;;;;;4.53;3.97;;;12.30;85.30;;;;;;4934570;29;20213;-88
2024/03/26 08:53:17;;;;;;;4.88;3.22;;;12.80;84.20;;;;;;4931561;29;20198;-88
2024/03/26 08:55:43;;;;;;;4.47;3.57;;;13.80;80.00;;;;;;4917930;29;20213;-88
2024/03/26 08:58:08;;;;;;;3.53;3.10;;;13.70;80.40;;;;;;4930925;29;20217;-88
2024/03/26 09:00:35;;;;;;;7.60;3.60;;;14.30;78.90;;;;;;4917219;29;20227;-89
2024/03/26 09:03:01;;;;;;;4.15;3.75;;;14.40;77.50;;;;;;4916530;29;20645;-87
2024/03/26 09:05:27;;;;;;;3.90;3.60;;;15.00;77.10;;;;;;4920618;28;20221;-88
2024/03/26 09:07:52;;;;;;;3.97;3.57;;;15.50;75.20;;;;;;4921760;29;20213;-88
2024/03/26 09:10:19;;;;;;;4.77;3.70;;;15.90;71.50;;;;;;4941488;29;20277;-86
2024/03/26 09:12:44;;;;;;;4.45;3.58;;;15.90;70.40;;;;;;4925312;29;20197;-87
2024/03/26 09:15:10;;;;;;;3.90;3.40;;;15.90;69.30;;;;;;4920398;29;20183;-88
2024/03/26 09:17:35;;;;;;;4.77;4.23;;;17.00;67.10;;;;;;4934159;29;20552;-88
2024/03/26 09:20:12;;;;;;;4.47;3.10;;;16.80;66.70;;;;;;4916945;29;20193;-87
2024/03/26 09:22:37;;;;;;;4.43;3.47;;;17.00;64.30;;;;;;4931629;29;20240;-89
2024/03/26 09:25:04;;;;;;;4.03;3.73;;;17.70;64.00;;;;;;4914268;29;20268;-88
2024/03/26 09:27:29;;;;;;;3.40;3.10;;;17.10;62.30;;;;;;4932115;29;20216;-89
2024/03/26 09:29:56;;;;;;;4.23;3.40;;;18.80;62.90;;;;;;4915372;29;20189;-89
2024/03/26 09:32:22;;;;;;;3.90;3.60;;;18.20;60.10;;;;;;4917739;29;20213;-87
2024/03/26 09:34:48;;;;;;;6.43;3.60;;;19.60;60.50;;;;;;4934154;29;20553;-87
2024/03/26 09:37:13;;;;;;;3.70;3.37;;;19.00;58.50;;;;;;4913628;29;20408;-88
2024/03/26 09:39:40;;;;;;;5.60;3.73;;;19.00;58.30;;;;;;4932735;29;20540;-88
2024/03/26 09:42:08;;;;;;;4.97;4.03;;;18.20;58.00;;;;;;4930851;29;20295;-88
2024/03/26 09:44:35;;;;;;;4.03;3.50;;;18.20;59.20;;;;;;4918302;29;20260;-88
2024/03/26 09:47:01;;;;;;;6.63;3.05;;;18.40;57.50;;;;;;4920381;29;20240;-88
2024/03/26 09:49:28;;;;;;;6.80;3.83;;;19.40;57.60;;;;;;4920260;29;20714;-89
2024/03/26 09:51:54;;;;;;;4.78;3.60;;;19.40;56.70;;;;;;4920718;29;20612;-90
2024/03/26 09:54:20;;;;;;;6.40;5.80;;;20.50;55.30;;;;;;4920920;29;20194;-90
2024/03/26 09:56:47;;;;;;;4.40;3.47;;;20.90;54.40;;;;;;4921233;29;20837;-89
2024/03/26 09:59:12;;;;;;;3.70;3.37;;;21.70;53.50;;;;;;4932734;29;20477;-89
2024/03/26 10:01:39;;;;;;;5.60;3.90;;;21.90;51.60;;;;;;4921278;29;20481;-88
2024/03/26 10:04:06;;;;;;;5.13;3.97;;;23.20;50.70;;;;;;4936409;29;20189;-90
2024/03/26 10:06:32;;;;;;;5.03;3.60;;;22.60;47.70;;;;;;4920163;29;20493;-89
2024/03/26 10:08:58;;;;;;;4.53;4.13;;;22.50;48.50;;;;;;4936948;29;20454;-90
2024/03/26 10:11:25;;;;;;;4.10;3.70;;;22.80;48.80;;;;;;4937381;29;20811;-90
2024/03/26 10:13:53;;;;;;;3.63;3.20;;;23.30;49.00;;;;;;4935114;29;20202;-90
2024/03/26 10:16:19;;;;;;;4.67;3.80;;;22.70;48.90;;;;;;4920564;29;20497;-90
2024/03/26 10:18:45;;;;;;;4.33;3.93;;;23.10;48.40;;;;;;4945306;29;20878;-88
2024/03/26 10:21:11;;;;;;;5.73;4.20;;;22.00;48.40;;;;;;4922985;29;20287;-88
2024/03/26 10:23:37;;;;;;;5.03;4.53;;;22.10;50.40;;;;;;4934589;29;20564;-87
2024/03/26 10:26:02;;;;;;;6.13;4.20;;;22.40;50.10;;;;;;4927581;28;20232;-87
2024/03/26 10:28:28;;;;;;;4.60;3.80;;;22.00;49.50;;;;;;4939653;29;20480;-87
2024/03/26 10:30:54;;;;;;;4.10;3.77;;;21.60;49.70;;;;;;4940377;29;20186;-87
2024/03/26 10:33:20;;;;;;;4.53;3.67;;;21.30;51.10;;;;;;4926566;29;20198;-87
2024/03/26 10:35:54;;;;;;;5.33;4.40;;;21.50;50.80;;;;;;4921657;29;21062;-87
2024/03/26 10:38:22;;;;;;;6.53;4.70;;;21.30;50.70;;;;;;4938074;29;20449;-88
2024/03/26 10:41:02;;;;;;;5.67;4.00;;;21.90;49.80;;;;;;4921381;29;20472;-89
2024/03/26 10:43:28;;;;;;;4.57;4.17;;;21.30;49.90;;;;;;4922307;29;20468;-88
2024/03/26 10:45:54;;;;;;;6.80;3.80;;;22.30;50.20;;;;;;4920771;29;20470;-87
2024/03/26 10:48:20;;;;;;;4.27;3.80;;;22.10;48.80;;;;;;4948928;29;20441;-89
2024/03/26 10:50:47;;;;;;;4.80;3.97;;;22.30;49.00;;;;;;4947302;29;20440;-89
2024/03/26 10:53:13;;;;;;;4.70;4.20;;;21.60;48.90;;;;;;4930907;29;20458;-90
2024/03/26 10:55:42;;;;;;;4.40;3.60;;;21.20;49.60;;;;;;4940126;28;20460;-90
2024/03/26 10:58:07;;;;;;;6.10;3.73;;;21.30;51.20;;;;;;4941559;28;20442;-91
2024/03/26 11:00:37;;;;;;;5.97;3.87;;;21.10;50.60;;;;;;4932842;28;20493;-89
2024/03/26 11:03:04;;;;;;;6.10;3.90;;;21.20;51.20;;;;;;4942380;29;20222;-88
2024/03/26 11:05:30;;;;;;;4.63;4.23;;;20.80;51.40;;;;;;4940949;29;20471;-87
2024/03/26 11:07:56;;;;;;;9.23;4.43;;;20.80;50.70;;;;;;4937608;29;20529;-87
2024/03/26 11:10:22;;;;;;;5.20;3.40;;;21.70;51.60;;;;;;4956938;28;20433;-89
2024/03/26 11:12:49;;;;;;;3.83;3.43;;;21.90;50.30;;;;;;4941770;29;20317;-88
2024/03/26 11:15:15;;;;;;;6.50;3.60;;;22.60;48.80;;;;;;4933391;29;20500;-88
2024/03/26 11:17:57;;;;;;;4.63;3.53;;;23.30;47.80;;;;;;4936744;29;20492;-88
2024/03/26 11:20:25;;;;;;;5.00;3.63;;;22.90;47.80;;;;;;4939958;28;20216;-88
2024/03/26 11:23:05;;;;;;;4.90;3.70;;;22.80;47.90;;;;;;4939013;29;20480;-88
2024/03/26 11:25:32;;;;;;;9.33;4.90;;;24.20;46.80;;;;;;4939544;28;20533;-88
2024/03/26 11:28:00;;;;;;;5.87;4.20;;;24.10;46.90;;;;;;4932865;29;20488;-88
2024/03/26 11:30:30;;;;;;;6.40;3.87;;;24.50;46.30;;;;;;4943345;29;20459;-88
2024/03/26 11:32:57;;;;;;;4.20;3.77;;;23.90;45.40;;;;;;4922551;29;20450;-88
2024/03/26 11:35:27;;;;;;;4.23;3.83;;;23.60;46.20;;;;;;4919636;29;20475;-88
2024/03/26 11:37:57;;;;;;;5.30;4.30;;;23.20;46.70;;;;;;4938291;29;20509;-88
2024/03/26 11:40:23;;;;;;;3.97;3.43;;;23.60;46.10;;;;;;4917453;29;20450;-87
2024/03/26 11:42:52;;;;;;;4.00;3.60;;;22.90;47.40;;;;;;4934331;29;20489;-88
2024/03/26 11:45:19;;;;;;;6.87;3.80;;;23.10;47.30;;;;;;4914630;29;21598;-87
2024/03/26 11:47:44;;;;;;;5.13;3.60;;;23.40;47.00;;;;;;4917127;29;20473;-87
2024/03/26 11:50:11;;;;;;;5.30;3.77;;;22.60;46.50;;;;;;4920168;29;20465;-86
2024/03/26 11:52:38;;;;;;;4.13;3.73;;;22.30;46.50;;;;;;4918904;29;20190;-86
2024/03/26 11:55:05;;;;;;;6.10;3.10;;;22.90;48.00;;;;;;4919918;29;20457;-85
2024/03/26 11:57:31;;;;;;;4.53;3.77;;;22.70;46.80;;;;;;4916827;29;20606;-84
2024/03/26 11:59:56;;;;;;;4.13;3.27;;;22.80;47.20;;;;;;4932535;29;20536;-86
2024/03/26 12:02:22;;;;;;;3.27;2.97;;;22.40;46.30;;;;;;4922219;29;20272;-88
2024/03/26 12:04:47;;;;;;;3.87;3.47;;;22.30;45.60;;;;;;4920497;29;20225;-89
2024/03/26 12:07:20;;;;;;;2.67;2.40;;;21.80;45.20;;;;;;4917894;29;20257;-88
2024/03/26 12:09:46;;;;;;;6.13;3.10;;;21.60;45.90;;;;;;4923689;29;20194;-89
2024/03/26 12:12:12;;;;;;;4.13;2.50;;;21.50;46.10;;;;;;4917826;29;20482;-88
2024/03/26 12:14:38;;;;;;;2.90;2.28;;;20.90;46.10;;;;;;4926924;29;20209;-84
2024/03/26 12:17:04;;;;;;;3.85;2.40;;;20.60;47.20;;;;;;4924357;29;20213;-85
2024/03/26 12:19:30;;;;;;;3.03;2.60;;;20.50;48.10;;;;;;4929204;29;20241;-82
2024/03/26 12:21:56;;;;;;;2.60;2.40;;;20.20;48.20;;;;;;4939083;29;20218;-83
2024/03/26 12:24:22;;;;;;;5.55;3.67;;;20.30;48.00;;;;;;4927978;29;20224;-83
2024/03/26 12:26:47;;;;;;;3.40;2.70;;;20.50;48.70;;;;;;4954026;29;20213;-83
2024/03/26 12:29:13;;;;;;;4.70;2.83;;;20.10;49.50;;;;;;4935299;29;20182;-86
2024/03/26 12:31:39;;;;;;;3.67;2.70;;;20.10;50.90;;;;;;4951251;28;20222;-89
2024/03/26 12:34:13;;;;;;;4.55;3.20;;;21.10;51.40;;;;;;4922390;29;20292;-89
2024/03/26 12:36:39;;;;;;;3.33;3.00;;;20.30;52.70;;;;;;4933994;29;20917;-87
2024/03/26 12:39:07;;;;;;;4.15;3.75;;;20.00;53.10;;;;;;4916260;29;20189;-88
2024/03/26 12:41:33;;;;;;;2.95;2.42;;;20.10;52.30;;;;;;4936091;29;20190;-88
2024/03/26 12:43:59;;;;;;;3.53;2.70;;;20.20;51.90;;;;;;4919614;29;20308;-88
2024/03/26 12:46:29;;;;;;;4.78;2.90;;;20.00;52.00;;;;;;4940027;29;20272;-88